createdAt,value
2023-05-02T00:02:18.043Z,99339.22
2023-05-02T00:04:44.901Z,99340.41
2023-05-02T00:07:11.956Z,99341.50
2023-05-02T00:09:38.881Z,99337.84
2023-05-02T00:12:05.707Z,99343.22
2023-05-02T00:14:33.015Z,99337.06
2023-05-02T00:17:01.209Z,99335.44
2023-05-02T00:19:27.873Z,99340.88
2023-05-02T00:21:54.605Z,99335.19
2023-05-02T00:24:21.316Z,99339.13
2023-05-02T00:26:48.073Z,99349.66
2023-05-02T00:29:14.739Z,99342.84
2023-05-02T00:31:41.624Z,99344.16
2023-05-02T00:34:09.731Z,99344.53
2023-05-02T00:36:36.804Z,99341.63
2023-05-02T00:39:04.354Z,99352.41
2023-05-02T00:41:31.290Z,99349.06
2023-05-02T00:43:58.232Z,99348.09
2023-05-02T00:46:25.072Z,99348.47
2023-05-02T00:48:52.073Z,99338.94
2023-05-02T00:51:20.454Z,99346.69
2023-05-02T00:53:47.173Z,99350.25
2023-05-02T00:56:13.866Z,99353.00
2023-05-02T00:58:41.213Z,99349.91
2023-05-02T01:01:26.429Z,99356.13
2023-05-02T01:04:00.606Z,99360.41
2023-05-02T01:06:36.939Z,99361.69
2023-05-02T01:09:10.490Z,99369.00
2023-05-02T01:11:44.319Z,99356.09
2023-05-02T01:14:12.009Z,99353.09
2023-05-02T01:16:40.668Z,99356.19
2023-05-02T01:19:10.820Z,99366.47
2023-05-02T01:21:39.513Z,99357.41
2023-05-02T01:24:10.747Z,99365.41
2023-05-02T01:26:45.878Z,99356.19
2023-05-02T01:29:15.493Z,99352.03
2023-05-02T01:31:44.303Z,99351.91
2023-05-02T01:34:11.457Z,99357.31
2023-05-02T01:36:42.897Z,99356.47
2023-05-02T01:39:10.593Z,99361.00
2023-05-02T01:41:38.646Z,99358.13
2023-05-02T01:44:07.328Z,99366.75
2023-05-02T01:46:38.553Z,99367.69
2023-05-02T01:49:06.661Z,99370.66
2023-05-02T01:51:35.135Z,99371.97
2023-05-02T01:54:04.275Z,99376.88
2023-05-02T01:56:32.804Z,99378.59
2023-05-02T01:59:00.389Z,99388.25
2023-05-02T02:01:28.986Z,99392.75
2023-05-02T02:03:57.790Z,99392.16
2023-05-02T02:06:25.001Z,99394.22
2023-05-02T02:08:51.731Z,99396.09
2023-05-02T02:11:21.236Z,99402.22
2023-05-02T02:13:50.737Z,99408.66
2023-05-02T02:16:21.707Z,99414.28
2023-05-02T02:18:48.518Z,99411.41
2023-05-02T02:21:18.996Z,99414.72
2023-05-02T02:23:47.704Z,99410.78
2023-05-02T02:26:14.613Z,99412.50
2023-05-02T02:28:43.098Z,99407.69
2023-05-02T02:31:09.778Z,99422.50
2023-05-02T02:33:36.666Z,99426.41
2023-05-02T02:36:07.516Z,99429.19
2023-05-02T02:38:38.416Z,99434.69
2023-05-02T02:41:11.353Z,99441.03
2023-05-02T02:43:41.202Z,99440.78
2023-05-02T02:46:14.937Z,99450.25
2023-05-02T02:48:48.847Z,99450.13
2023-05-02T02:51:22.483Z,99451.06
2023-05-02T02:53:56.275Z,99452.81
2023-05-02T02:56:27.887Z,99453.03
2023-05-02T02:58:57.340Z,99457.91
2023-05-02T03:01:25.556Z,99458.13
2023-05-02T03:03:53.941Z,99459.81
2023-05-02T03:06:20.882Z,99463.09
2023-05-02T03:08:47.794Z,99466.97
2023-05-02T03:11:20.763Z,99467.44
2023-05-02T03:13:47.737Z,99469.38
2023-05-02T03:16:36.751Z,99472.16
2023-05-02T03:19:06.892Z,99480.66
2023-05-02T03:21:33.942Z,99476.56
2023-05-02T03:24:06.872Z,99472.09
2023-05-02T03:26:35.127Z,99478.28
2023-05-02T03:29:02.201Z,99478.00
2023-05-02T03:31:34.690Z,99478.41
2023-05-02T03:34:01.753Z,99482.72
2023-05-02T03:36:28.986Z,99483.84
2023-05-02T03:38:56.024Z,99484.50
2023-05-02T03:41:24.756Z,99492.31
2023-05-02T03:44:00.358Z,99492.09
2023-05-02T03:46:28.398Z,99488.63
2023-05-02T03:48:57.426Z,99488.75
2023-05-02T03:51:24.063Z,99501.78
2023-05-02T03:53:54.836Z,99497.88
2023-05-02T03:56:21.698Z,99505.56
2023-05-02T03:59:00.065Z,99506.63
2023-05-02T04:01:27.607Z,99503.91
2023-05-02T04:03:56.276Z,99507.78
2023-05-02T04:06:25.852Z,99514.81
2023-05-02T04:08:59.257Z,99513.88
2023-05-02T04:11:30.424Z,99520.81
2023-05-02T04:13:57.429Z,99523.09
2023-05-02T04:16:25.679Z,99522.25
2023-05-02T04:18:52.547Z,99523.44
2023-05-02T04:21:19.755Z,99527.25
2023-05-02T04:23:47.482Z,99528.69
2023-05-02T04:26:14.988Z,99534.69
2023-05-02T04:28:53.716Z,99535.28
2023-05-02T04:31:20.691Z,99539.84
2023-05-02T04:33:49.304Z,99544.59
2023-05-02T04:36:19.968Z,99546.19
2023-05-02T04:38:47.396Z,99551.31
2023-05-02T04:41:16.208Z,99554.91
2023-05-02T04:43:48.585Z,99555.47
2023-05-02T04:46:16.423Z,99557.63
2023-05-02T04:48:43.191Z,99566.00
2023-05-02T04:51:11.458Z,99559.09
2023-05-02T04:53:38.373Z,99563.72
2023-05-02T04:56:05.611Z,99561.22
2023-05-02T04:58:35.317Z,99568.66
2023-05-02T05:01:05.129Z,99561.81
2023-05-02T05:03:33.448Z,99555.09
2023-05-02T05:06:00.514Z,99565.44
2023-05-02T05:08:29.251Z,99575.47
2023-05-02T05:10:57.546Z,99561.28
2023-05-02T05:13:25.117Z,99565.03
2023-05-02T05:15:52.729Z,99552.41
2023-05-02T05:18:22.320Z,99558.97
2023-05-02T05:20:49.024Z,99553.09
2023-05-02T05:23:16.259Z,99555.13
2023-05-02T05:25:45.735Z,99552.91
2023-05-02T05:28:14.402Z,99553.84
2023-05-02T05:30:41.337Z,99552.91
2023-05-02T05:33:11.083Z,99553.81
2023-05-02T05:35:38.244Z,99548.41
2023-05-02T05:38:05.180Z,99557.81
2023-05-02T05:40:34.734Z,99569.34
2023-05-02T05:43:02.934Z,99567.44
2023-05-02T05:45:33.958Z,99581.41
2023-05-02T05:48:00.865Z,99585.94
2023-05-02T05:50:31.117Z,99588.97
2023-05-02T05:52:58.143Z,99592.47
2023-05-02T05:55:24.941Z,99585.53
2023-05-02T05:57:51.737Z,99593.06
2023-05-02T06:00:20.543Z,99587.91
2023-05-02T06:02:51.149Z,99600.16
2023-05-02T06:05:26.420Z,99606.53
2023-05-02T06:07:53.412Z,99609.66
2023-05-02T06:10:20.144Z,99609.41
2023-05-02T06:12:49.157Z,99610.69
2023-05-02T06:15:18.438Z,99608.44
2023-05-02T06:17:46.567Z,99614.09
2023-05-02T06:20:16.044Z,99610.25
2023-05-02T06:22:43.491Z,99617.19
2023-05-02T06:25:10.158Z,99623.47
2023-05-02T06:27:36.873Z,99625.28
2023-05-02T06:30:04.092Z,99633.47
2023-05-02T06:32:31.664Z,99641.97
2023-05-02T06:35:00.301Z,99644.44
2023-05-02T06:37:26.948Z,99652.56
2023-05-02T06:39:53.578Z,99656.38
2023-05-02T06:42:20.433Z,99660.59
2023-05-02T06:44:47.091Z,99663.38
2023-05-02T06:47:13.899Z,99659.91
2023-05-02T06:49:40.873Z,99669.97
2023-05-02T06:52:08.964Z,99666.63
2023-05-02T06:54:35.706Z,99665.84
2023-05-02T06:57:02.986Z,99659.72
2023-05-02T06:59:29.645Z,99665.28
2023-05-02T07:01:56.382Z,99660.19
2023-05-02T07:04:23.131Z,99654.34
2023-05-02T07:06:50.189Z,99660.31
2023-05-02T07:09:18.395Z,99654.06
2023-05-02T07:11:45.150Z,99662.06
2023-05-02T07:14:11.859Z,99658.72
2023-05-02T07:16:38.646Z,99661.94
2023-05-02T07:19:06.837Z,99655.91
2023-05-02T07:21:33.799Z,99658.06
2023-05-02T07:24:01.460Z,99659.75
2023-05-02T07:26:29.951Z,99664.50
2023-05-02T07:28:56.593Z,99656.31
2023-05-02T07:31:23.389Z,99650.75
2023-05-02T07:33:50.327Z,99663.88
2023-05-02T07:36:18.078Z,99670.25
2023-05-02T07:38:44.817Z,99667.31
2023-05-02T07:41:13.428Z,99670.25
2023-05-02T07:43:41.590Z,99672.09
2023-05-02T07:46:08.289Z,99664.34
2023-05-02T07:48:35.142Z,99675.25
2023-05-02T07:51:08.101Z,99677.00
2023-05-02T07:53:34.922Z,99678.69
2023-05-02T07:56:03.276Z,99678.13
2023-05-02T07:58:30.041Z,99681.91
2023-05-02T08:00:58.188Z,99679.06
2023-05-02T08:03:24.931Z,99680.09
2023-05-02T08:05:51.637Z,99678.22
2023-05-02T08:08:18.318Z,99680.69
2023-05-02T08:10:45.480Z,99681.03
2023-05-02T08:13:12.432Z,99682.59
2023-05-02T08:15:39.094Z,99684.56
2023-05-02T08:18:07.296Z,99690.63
2023-05-02T08:20:34.160Z,99688.84
2023-05-02T08:23:01.062Z,99697.09
2023-05-02T08:25:27.820Z,99693.44
2023-05-02T08:27:54.488Z,99704.47
2023-05-02T08:30:21.217Z,99704.31
2023-05-02T08:32:48.124Z,99696.94
2023-05-02T08:35:16.378Z,99702.84
2023-05-02T08:37:43.089Z,99710.53
2023-05-02T08:40:11.759Z,99700.72
2023-05-02T08:42:41.371Z,99702.75
2023-05-02T08:45:17.356Z,99707.41
2023-05-02T08:47:44.812Z,99716.69
2023-05-02T08:50:11.877Z,99724.34
2023-05-02T08:52:40.281Z,99714.91
2023-05-02T08:55:07.479Z,99720.22
2023-05-02T08:57:34.215Z,99726.25
2023-05-02T09:00:01.183Z,99735.66
2023-05-02T09:02:40.620Z,99727.97
2023-05-02T09:05:07.964Z,99738.63
2023-05-02T09:07:44.879Z,99726.69
2023-05-02T09:10:11.941Z,99725.53
2023-05-02T09:12:38.935Z,99730.34
2023-05-02T09:15:12.401Z,99726.34
2023-05-02T09:17:40.007Z,99730.84
2023-05-02T09:20:07.409Z,99734.84
2023-05-02T09:22:34.732Z,99740.06
2023-05-02T09:25:02.931Z,99744.53
2023-05-02T09:27:29.670Z,99752.69
2023-05-02T09:30:18.089Z,99750.38
2023-05-02T09:32:44.831Z,99749.84
2023-05-02T09:35:11.646Z,99749.38
2023-05-02T09:37:38.367Z,99749.38
2023-05-02T09:40:07.688Z,99758.72
2023-05-02T09:42:34.292Z,99762.38
2023-05-02T09:45:01.359Z,99770.56
2023-05-02T09:47:28.262Z,99768.38
2023-05-02T09:49:54.932Z,99767.72
2023-05-02T09:52:24.596Z,99773.38
2023-05-02T09:54:52.753Z,99779.34
2023-05-02T09:57:20.955Z,99781.78
2023-05-02T09:59:54.215Z,99786.59
2023-05-02T10:02:21.960Z,99785.34
2023-05-02T10:04:50.157Z,99784.28
2023-05-02T10:07:17.309Z,99787.00
2023-05-02T10:09:47.378Z,99783.19
2023-05-02T10:12:15.094Z,99786.56
2023-05-02T10:14:46.294Z,99792.94
2023-05-02T10:17:14.330Z,99790.81
2023-05-02T10:19:44.382Z,99793.13
2023-05-02T10:22:12.676Z,99798.22
2023-05-02T10:24:40.377Z,99795.84
2023-05-02T10:27:07.686Z,99797.50
2023-05-02T10:29:35.084Z,99796.56
2023-05-02T10:32:04.428Z,99799.38
2023-05-02T10:34:32.189Z,99792.09
2023-05-02T10:37:02.212Z,99790.78
2023-05-02T10:39:29.285Z,99790.38
2023-05-02T10:41:57.800Z,99797.53
2023-05-02T10:44:32.478Z,99791.56
2023-05-02T10:46:59.703Z,99782.38
2023-05-02T10:49:29.814Z,99784.81
2023-05-02T10:51:56.611Z,99781.97
2023-05-02T10:54:24.312Z,99783.25
2023-05-02T10:57:05.994Z,99786.97
2023-05-02T10:59:34.465Z,99781.47
2023-05-02T11:02:01.928Z,99785.78
2023-05-02T11:04:43.792Z,99786.66
2023-05-02T11:07:18.748Z,99782.63
2023-05-02T11:09:45.427Z,99782.81
2023-05-02T11:12:32.046Z,99781.56
2023-05-02T11:14:59.373Z,99782.81
2023-05-02T11:17:26.850Z,99784.97
2023-05-02T11:20:23.755Z,99785.66
2023-05-02T11:22:52.342Z,99791.03
2023-05-02T11:25:32.726Z,99779.16
2023-05-02T11:27:59.551Z,99784.75
2023-05-02T11:30:39.792Z,99783.41
2023-05-02T11:33:16.060Z,99782.78
2023-05-02T11:35:47.285Z,99770.38
2023-05-02T11:38:16.396Z,99774.94
2023-05-02T11:40:50.622Z,99779.50
2023-05-02T11:43:18.419Z,99765.34
2023-05-02T11:45:45.587Z,99765.00
2023-05-02T11:48:13.143Z,99765.53
2023-05-02T11:50:48.849Z,99773.41
2023-05-02T11:53:18.785Z,99776.13
2023-05-02T11:55:46.148Z,99771.50
2023-05-02T11:58:13.878Z,99773.38
2023-05-02T12:00:40.573Z,99776.13
2023-05-02T12:03:07.393Z,99769.25
2023-05-02T12:05:34.302Z,99761.19
2023-05-02T12:08:02.615Z,99760.13
2023-05-02T12:10:37.796Z,99755.81
2023-05-02T12:13:04.966Z,99759.22
2023-05-02T12:15:31.634Z,99758.75
2023-05-02T12:17:58.540Z,99771.47
2023-05-02T12:20:25.273Z,99763.41
2023-05-02T12:22:51.935Z,99769.88
2023-05-02T12:25:18.645Z,99769.03
2023-05-02T12:27:59.911Z,99767.97
2023-05-02T12:30:26.809Z,99763.16
2023-05-02T12:32:56.316Z,99759.28
2023-05-02T12:35:23.254Z,99760.13
2023-05-02T12:37:50.178Z,99755.13
2023-05-02T12:40:19.591Z,99751.25
2023-05-02T12:42:58.851Z,99751.59
2023-05-02T12:45:29.527Z,99756.34
2023-05-02T12:47:58.552Z,99762.41
2023-05-02T12:50:35.767Z,99759.63
2023-05-02T12:53:03.936Z,99762.69
2023-05-02T12:55:32.457Z,99756.78
2023-05-02T12:58:02.479Z,99761.31
2023-05-02T13:00:31.859Z,99757.91
2023-05-02T13:02:58.836Z,99755.41
2023-05-02T13:05:26.063Z,99752.19
2023-05-02T13:07:52.928Z,99751.25
2023-05-02T13:10:19.641Z,99753.75
2023-05-02T13:12:47.177Z,99744.91
2023-05-02T13:15:14.380Z,99744.06
2023-05-02T13:17:42.621Z,99749.66
2023-05-02T13:20:09.720Z,99750.63
2023-05-02T13:22:39.148Z,99745.28
2023-05-02T13:25:06.774Z,99734.81
2023-05-02T13:27:34.350Z,99745.63
2023-05-02T13:30:07.496Z,99739.97
2023-05-02T13:32:35.882Z,99735.94
2023-05-02T13:35:04.226Z,99731.97
2023-05-02T13:37:31.346Z,99735.72
2023-05-02T13:39:58.087Z,99736.56
2023-05-02T13:42:24.754Z,99741.81
2023-05-02T13:44:51.804Z,99726.81
2023-05-02T13:47:18.562Z,99727.06
2023-05-02T13:49:45.383Z,99719.28
2023-05-02T13:52:13.530Z,99719.84
2023-05-02T13:54:42.127Z,99729.97
2023-05-02T13:57:08.792Z,99726.72
2023-05-02T13:59:35.847Z,99732.53
2023-05-02T14:02:02.706Z,99710.03
2023-05-02T14:04:29.568Z,99717.38
2023-05-02T14:06:56.328Z,99716.75
2023-05-02T14:09:24.513Z,99716.16
2023-05-02T14:11:51.279Z,99720.31
2023-05-02T14:14:18.018Z,99719.94
2023-05-02T14:16:44.734Z,99717.94
2023-05-02T14:19:11.655Z,99711.69
2023-05-02T14:21:38.877Z,99709.56
2023-05-02T14:24:06.491Z,99716.06
2023-05-02T14:26:34.613Z,99713.19
2023-05-02T14:29:01.683Z,99707.69
2023-05-02T14:31:28.492Z,99711.09
2023-05-02T14:33:55.268Z,99710.19
2023-05-02T14:36:21.979Z,99716.53
2023-05-02T14:38:48.643Z,99705.72
2023-05-02T14:41:15.309Z,99712.09
2023-05-02T14:43:43.456Z,99706.91
2023-05-02T14:46:10.456Z,99704.06
2023-05-02T14:48:37.191Z,99714.44
2023-05-02T14:51:06.601Z,99716.31
2023-05-02T14:53:34.301Z,99716.03
2023-05-02T14:56:01.135Z,99706.06
2023-05-02T14:58:28.011Z,99698.13
2023-05-02T15:00:56.247Z,99700.06
2023-05-02T15:03:23.213Z,99705.53
2023-05-02T15:05:49.999Z,99700.41
2023-05-02T15:08:16.640Z,99702.06
2023-05-02T15:10:43.222Z,99693.38
2023-05-02T15:13:09.988Z,99687.31
2023-05-02T15:15:37.487Z,99696.81
2023-05-02T15:18:06.040Z,99697.22
2023-05-02T15:20:32.914Z,99697.19
2023-05-02T15:23:03.541Z,99692.16
2023-05-02T15:25:31.166Z,99690.94
2023-05-02T15:27:57.992Z,99689.78
2023-05-02T15:30:25.239Z,99694.97
2023-05-02T15:32:52.133Z,99688.28
2023-05-02T15:35:20.679Z,99689.41
2023-05-02T15:37:47.384Z,99690.91
2023-05-02T15:40:14.537Z,99692.69
2023-05-02T15:42:41.837Z,99693.53
2023-05-02T15:45:11.306Z,99698.78
2023-05-02T15:47:37.975Z,99696.31
2023-05-02T15:50:05.426Z,99690.41
2023-05-02T15:52:33.855Z,99692.53
2023-05-02T15:55:01.676Z,99689.41
2023-05-02T15:57:28.377Z,99691.16
2023-05-02T15:59:55.168Z,99694.13
2023-05-02T16:02:21.977Z,99697.38
2023-05-02T16:04:48.969Z,99693.72
2023-05-02T16:07:15.846Z,99683.28
2023-05-02T16:09:43.902Z,99692.91
2023-05-02T16:12:11.158Z,99691.97
2023-05-02T16:14:37.900Z,99686.16
2023-05-02T16:17:04.594Z,99698.59
2023-05-02T16:19:31.580Z,99698.13
2023-05-02T16:21:58.218Z,99692.28
2023-05-02T16:24:25.084Z,99693.13
2023-05-02T16:26:53.144Z,99694.09
2023-05-02T16:29:19.788Z,99692.28
2023-05-02T16:31:46.502Z,99698.00
2023-05-02T16:34:13.208Z,99702.63
2023-05-02T16:36:39.964Z,99692.44
2023-05-02T16:39:06.758Z,99701.13
2023-05-02T16:41:34.510Z,99694.19
2023-05-02T16:44:02.654Z,99700.09
2023-05-02T16:46:29.382Z,99704.34
2023-05-02T16:48:56.170Z,99701.56
2023-05-02T16:51:22.977Z,99711.28
2023-05-02T16:53:49.791Z,99708.13
2023-05-02T16:56:16.420Z,99703.13
2023-05-02T16:58:43.134Z,99704.19
2023-05-02T17:01:11.431Z,99711.34
2023-05-02T17:03:39.506Z,99709.84
2023-05-02T17:06:06.332Z,99710.41
2023-05-02T17:08:33.150Z,99696.91
2023-05-02T17:10:59.823Z,99702.59
2023-05-02T17:13:26.638Z,99704.41
2023-05-02T17:15:53.755Z,99704.94
2023-05-02T17:18:22.181Z,99701.09
2023-05-02T17:20:48.975Z,99702.94
2023-05-02T17:23:16.185Z,99697.94
2023-05-02T17:25:42.962Z,99700.59
2023-05-02T17:28:09.962Z,99703.44
2023-05-02T17:30:36.954Z,99710.78
2023-05-02T17:33:03.973Z,99699.66
2023-05-02T17:35:32.078Z,99704.47
2023-05-02T17:37:58.785Z,99698.84
2023-05-02T17:40:25.526Z,99703.03
2023-05-02T17:42:52.236Z,99707.34
2023-05-02T17:45:18.868Z,99703.72
2023-05-02T17:47:45.884Z,99704.38
2023-05-02T17:50:14.230Z,99703.38
2023-05-02T17:52:42.320Z,99711.59
2023-05-02T17:55:09.311Z,99715.38
2023-05-02T17:57:36.417Z,99716.72
2023-05-02T18:00:04.942Z,99714.41
2023-05-02T18:02:33.530Z,99720.72
2023-05-02T18:05:02.952Z,99723.75
2023-05-02T18:07:30.145Z,99724.53
2023-05-02T18:09:59.302Z,99722.88
2023-05-02T18:12:26.007Z,99719.53
2023-05-02T18:14:52.814Z,99724.34
2023-05-02T18:17:20.883Z,99724.50
2023-05-02T18:19:50.573Z,99729.84
2023-05-02T18:22:19.640Z,99722.53
2023-05-02T18:24:47.085Z,99724.00
2023-05-02T18:27:15.345Z,99731.50
2023-05-02T18:29:41.998Z,99729.47
2023-05-02T18:32:08.816Z,99732.66
2023-05-02T18:34:38.345Z,99731.63
2023-05-02T18:37:05.858Z,99731.09
2023-05-02T18:39:33.074Z,99736.59
2023-05-02T18:42:01.434Z,99734.53
2023-05-02T18:44:29.664Z,99733.84
2023-05-02T18:46:59.174Z,99731.13
2023-05-02T18:49:26.309Z,99733.19
2023-05-02T18:51:53.043Z,99735.00
2023-05-02T18:54:19.900Z,99735.91
2023-05-02T18:56:46.917Z,99745.53
2023-05-02T18:59:13.555Z,99746.78
2023-05-02T19:01:41.790Z,99754.16
2023-05-02T19:04:08.430Z,99755.25
2023-05-02T19:06:35.172Z,99758.34
2023-05-02T19:09:01.894Z,99760.53
2023-05-02T19:11:28.681Z,99764.53
2023-05-02T19:13:58.786Z,99773.72
2023-05-02T19:16:27.144Z,99777.13
2023-05-02T19:18:57.057Z,99778.88
2023-05-02T19:21:23.940Z,99776.41
2023-05-02T19:23:50.679Z,99779.41
2023-05-02T19:26:17.596Z,99777.38
2023-05-02T19:28:44.771Z,99775.28
2023-05-02T19:31:11.951Z,99785.00
2023-05-02T19:33:38.904Z,99781.41
2023-05-02T19:36:07.311Z,99789.28
2023-05-02T19:38:33.965Z,99789.34
2023-05-02T19:41:00.999Z,99793.56
2023-05-02T19:43:27.962Z,99798.19
2023-05-02T19:45:56.828Z,99800.44
2023-05-02T19:48:23.718Z,99800.00
2023-05-02T19:50:50.386Z,99795.81
2023-05-02T19:53:18.447Z,99801.94
2023-05-02T19:55:45.101Z,99805.84
2023-05-02T19:58:11.786Z,99805.00
2023-05-02T20:00:38.445Z,99808.59
2023-05-02T20:03:05.702Z,99812.31
2023-05-02T20:05:32.494Z,99814.06
2023-05-02T20:07:59.656Z,99822.41
2023-05-02T20:10:27.685Z,99819.59
2023-05-02T20:12:54.322Z,99816.22
2023-05-02T20:15:21.866Z,99824.69
2023-05-02T20:17:48.720Z,99825.88
2023-05-02T20:20:15.642Z,99830.88
2023-05-02T20:22:42.407Z,99830.47
2023-05-02T20:25:11.450Z,99829.56
2023-05-02T20:27:39.585Z,99827.91
2023-05-02T20:30:08.222Z,99834.25
2023-05-02T20:32:34.973Z,99833.03
2023-05-02T20:35:01.724Z,99837.97
2023-05-02T20:37:29.376Z,99831.94
2023-05-02T20:39:56.570Z,99836.44
2023-05-02T20:42:24.355Z,99840.50
2023-05-02T20:44:56.867Z,99840.38
2023-05-02T20:47:23.739Z,99846.94
2023-05-02T20:49:50.498Z,99842.41
2023-05-02T20:52:17.457Z,99853.44
2023-05-02T20:54:44.400Z,99847.19
2023-05-02T20:57:11.290Z,99843.34
2023-05-02T20:59:38.091Z,99842.47
2023-05-02T21:02:06.483Z,99843.25
2023-05-02T21:04:33.461Z,99844.97
2023-05-02T21:07:00.250Z,99837.44
2023-05-02T21:09:27.095Z,99836.94
2023-05-02T21:11:53.853Z,99834.59
2023-05-02T21:14:24.245Z,99841.81
2023-05-02T21:16:50.950Z,99842.88
2023-05-02T21:19:19.860Z,99847.69
2023-05-02T21:21:46.785Z,99848.00
2023-05-02T21:24:13.417Z,99864.16
2023-05-02T21:26:40.934Z,99857.06
2023-05-02T21:29:08.152Z,99868.16
2023-05-02T21:31:34.876Z,99864.44
2023-05-02T21:34:01.525Z,99865.34
2023-05-02T21:36:29.569Z,99873.72
2023-05-02T21:38:56.303Z,99869.03
2023-05-02T21:41:22.999Z,99870.28
2023-05-02T21:43:49.692Z,99874.06
2023-05-02T21:46:16.377Z,99870.88
2023-05-02T21:48:42.996Z,99875.50
2023-05-02T21:51:10.435Z,99870.59
2023-05-02T21:53:38.417Z,99873.88
2023-05-02T21:56:05.840Z,99878.56
2023-05-02T21:58:32.626Z,99885.06
2023-05-02T22:00:59.495Z,99888.25
2023-05-02T22:03:27.531Z,99884.44
2023-05-02T22:05:57.700Z,99883.25
2023-05-02T22:08:24.832Z,99878.56
2023-05-02T22:10:52.986Z,99885.16
2023-05-02T22:13:19.644Z,99872.59
2023-05-02T22:15:46.839Z,99880.63
2023-05-02T22:18:14.190Z,99880.47
2023-05-02T22:20:40.940Z,99875.31
2023-05-02T22:23:07.975Z,99883.69
2023-05-02T22:25:35.984Z,99880.06
2023-05-02T22:28:06.893Z,99885.09
2023-05-02T22:30:34.055Z,99886.94
2023-05-02T22:33:02.395Z,99884.66
2023-05-02T22:35:29.477Z,99888.38
2023-05-02T22:37:58.958Z,99887.03
2023-05-02T22:40:25.685Z,99891.59
2023-05-02T22:42:52.481Z,99889.06
2023-05-02T22:45:20.718Z,99896.84
2023-05-02T22:47:47.400Z,99901.91
2023-05-02T22:50:14.393Z,99907.69
2023-05-02T22:52:41.038Z,99907.47
2023-05-02T22:55:09.352Z,99905.06
2023-05-02T22:57:36.289Z,99902.78
2023-05-02T23:00:03.587Z,99906.00
2023-05-02T23:02:32.047Z,99913.78
2023-05-02T23:04:58.719Z,99911.66
2023-05-02T23:07:25.693Z,99918.22
2023-05-02T23:09:52.604Z,99914.34
2023-05-02T23:12:19.275Z,99917.28
2023-05-02T23:14:46.266Z,99920.59
2023-05-02T23:17:13.149Z,99922.28
2023-05-02T23:19:41.226Z,99927.81
2023-05-02T23:22:07.845Z,99935.63
2023-05-02T23:24:34.470Z,99933.34
2023-05-02T23:27:01.321Z,99928.06
2023-05-02T23:29:28.610Z,99934.06
2023-05-02T23:31:55.615Z,99928.09
2023-05-02T23:34:22.330Z,99932.66
2023-05-02T23:36:51.490Z,99925.44
2023-05-02T23:39:18.451Z,99928.91
2023-05-02T23:41:45.165Z,99931.16
2023-05-02T23:44:11.858Z,99934.50
2023-05-02T23:46:38.533Z,99933.03
2023-05-02T23:49:05.241Z,99932.31
2023-05-02T23:51:32.242Z,99935.38
2023-05-02T23:54:00.415Z,99929.09
2023-05-02T23:56:27.581Z,99928.34
2023-05-02T23:58:54.264Z,99938.84
